createdAt,value
2023-05-07T00:02:08.275Z,15.88
2023-05-07T00:04:41.908Z,15.73
2023-05-07T00:07:18.921Z,15.53
2023-05-07T00:09:53.946Z,15.39
2023-05-07T00:12:27.753Z,15.28
2023-05-07T00:15:03.241Z,15.14
2023-05-07T00:17:37.723Z,14.96
2023-05-07T00:20:15.010Z,14.81
2023-05-07T00:22:42.502Z,14.71
2023-05-07T00:25:16.954Z,14.66
2023-05-07T00:27:45.791Z,14.60
2023-05-07T00:30:21.136Z,14.54
2023-05-07T00:32:56.662Z,14.41
2023-05-07T00:35:32.659Z,14.35
2023-05-07T00:38:09.821Z,14.38
2023-05-07T00:40:45.667Z,14.41
2023-05-07T00:43:20.355Z,14.42
2023-05-07T00:45:54.975Z,14.43
2023-05-07T00:48:18.216Z,14.40
2023-05-07T00:50:49.408Z,14.33
2023-05-07T00:53:24.004Z,14.23
2023-05-07T00:56:02.983Z,14.17
2023-05-07T00:58:27.035Z,14.17
2023-05-07T01:00:50.583Z,14.14
2023-05-07T01:03:24.942Z,14.15
2023-05-07T01:06:11.791Z,14.19
2023-05-07T01:08:46.366Z,14.23
2023-05-07T01:11:11.070Z,14.24
2023-05-07T01:13:37.043Z,14.19
2023-05-07T01:15:59.672Z,14.05
2023-05-07T01:18:34.271Z,13.85
2023-05-07T01:21:03.453Z,13.61
2023-05-07T01:23:39.515Z,13.41
2023-05-07T01:26:02.874Z,13.34
2023-05-07T01:28:26.484Z,13.28
2023-05-07T01:31:05.505Z,13.27
2023-05-07T01:33:42.672Z,13.25
2023-05-07T01:36:16.784Z,13.23
2023-05-07T01:38:52.209Z,13.20
2023-05-07T01:41:20.081Z,13.15
2023-05-07T01:43:56.419Z,13.12
2023-05-07T01:46:32.405Z,13.07
2023-05-07T01:49:06.762Z,13.02
2023-05-07T01:51:31.279Z,12.97
2023-05-07T01:54:05.439Z,12.93
2023-05-07T01:56:29.700Z,12.91
2023-05-07T01:59:05.265Z,12.86
2023-05-07T02:01:38.840Z,12.87
2023-05-07T02:04:13.823Z,12.90
2023-05-07T02:06:48.988Z,13.01
2023-05-07T02:09:12.763Z,13.16
2023-05-07T02:11:46.098Z,13.28
2023-05-07T02:14:10.990Z,13.39
2023-05-07T02:16:46.123Z,13.46
2023-05-07T02:19:20.361Z,13.49
2023-05-07T02:21:55.180Z,13.41
2023-05-07T02:24:30.145Z,13.31
2023-05-07T02:26:52.736Z,13.17
2023-05-07T02:29:15.332Z,13.09
2023-05-07T02:31:49.462Z,12.94
2023-05-07T02:34:22.643Z,12.83
2023-05-07T02:36:57.930Z,12.77
2023-05-07T02:39:31.583Z,12.70
2023-05-07T02:41:58.534Z,12.66
2023-05-07T02:44:33.878Z,12.58
2023-05-07T02:46:48.354Z,12.52
2023-05-07T02:49:05.221Z,12.49
2023-05-07T02:51:24.104Z,12.47
2023-05-07T02:53:50.325Z,12.48
2023-05-07T02:56:09.766Z,12.49
2023-05-07T02:58:44.227Z,12.45
2023-05-07T03:01:02.367Z,12.42
2023-05-07T03:03:45.571Z,12.35
2023-05-07T03:06:20.058Z,12.31
2023-05-07T03:08:36.500Z,12.29
2023-05-07T03:11:04.165Z,12.25
2023-05-07T03:13:19.339Z,12.22
2023-05-07T03:15:53.220Z,12.18
2023-05-07T03:18:16.975Z,12.15
2023-05-07T03:20:34.273Z,12.12
2023-05-07T03:23:08.241Z,12.09
2023-05-07T03:25:32.176Z,12.08
2023-05-07T03:27:46.780Z,12.06
2023-05-07T03:30:05.838Z,12.03
2023-05-07T03:32:23.209Z,11.97
2023-05-07T03:34:47.932Z,11.93
2023-05-07T03:37:05.891Z,11.89
2023-05-07T03:39:33.034Z,11.86
2023-05-07T03:41:51.147Z,11.84
2023-05-07T03:44:09.476Z,11.85
2023-05-07T03:46:28.482Z,11.84
2023-05-07T03:49:02.564Z,11.83
2023-05-07T03:51:29.845Z,11.84
2023-05-07T03:53:43.938Z,11.81
2023-05-07T03:56:19.918Z,11.73
2023-05-07T03:58:54.871Z,11.66
2023-05-07T04:01:21.432Z,11.62
2023-05-07T04:03:45.897Z,11.59
2023-05-07T04:06:04.654Z,11.57
2023-05-07T04:08:23.467Z,11.56
2023-05-07T04:10:41.627Z,11.56
2023-05-07T04:13:18.662Z,11.57
2023-05-07T04:15:51.521Z,11.54
2023-05-07T04:18:28.054Z,11.51
2023-05-07T04:21:02.738Z,11.52
2023-05-07T04:23:51.712Z,11.54
2023-05-07T04:26:14.374Z,11.56
2023-05-07T04:28:48.831Z,11.57
2023-05-07T04:31:16.493Z,11.57
2023-05-07T04:33:51.628Z,11.56
2023-05-07T04:36:18.257Z,11.56
2023-05-07T04:38:40.723Z,11.57
2023-05-07T04:41:27.310Z,11.54
2023-05-07T04:43:53.703Z,11.53
2023-05-07T04:46:26.132Z,11.51
2023-05-07T04:48:49.346Z,11.52
2023-05-07T04:51:07.666Z,11.52
2023-05-07T04:53:31.018Z,11.52
2023-05-07T04:56:04.942Z,11.51
2023-05-07T04:58:24.267Z,11.52
2023-05-07T05:00:59.020Z,11.52
2023-05-07T05:03:22.191Z,11.52
2023-05-07T05:05:46.233Z,11.53
2023-05-07T05:08:03.891Z,11.54
2023-05-07T05:10:38.136Z,11.55
2023-05-07T05:13:14.882Z,11.55
2023-05-07T05:15:51.037Z,11.53
2023-05-07T05:18:17.546Z,11.50
2023-05-07T05:20:55.193Z,11.44
2023-05-07T05:23:13.681Z,11.40
2023-05-07T05:25:28.147Z,11.37
2023-05-07T05:27:50.891Z,11.35
2023-05-07T05:30:14.993Z,11.35
2023-05-07T05:32:40.750Z,11.33
2023-05-07T05:35:09.948Z,11.29
2023-05-07T05:37:43.978Z,11.26
2023-05-07T05:40:09.319Z,11.23
2023-05-07T05:42:35.694Z,11.23
2023-05-07T05:44:54.074Z,11.22
2023-05-07T05:47:13.753Z,11.22
2023-05-07T05:49:47.533Z,11.20
2023-05-07T05:52:09.799Z,11.20
2023-05-07T05:54:39.590Z,11.19
2023-05-07T05:57:14.213Z,11.20
2023-05-07T05:59:42.995Z,11.18
2023-05-07T06:02:21.141Z,11.15
2023-05-07T06:04:49.063Z,11.17
2023-05-07T06:07:18.353Z,11.23
2023-05-07T06:09:51.063Z,11.27
2023-05-07T06:12:04.897Z,11.28
2023-05-07T06:14:22.958Z,11.27
2023-05-07T06:16:57.251Z,11.26
2023-05-07T06:19:25.395Z,11.23
2023-05-07T06:21:50.513Z,11.22
2023-05-07T06:24:07.396Z,11.19
2023-05-07T06:26:41.340Z,11.18
2023-05-07T06:29:04.188Z,11.17
2023-05-07T06:31:27.656Z,11.18
2023-05-07T06:33:50.684Z,11.14
2023-05-07T06:36:05.792Z,11.12
2023-05-07T06:38:30.454Z,11.11
2023-05-07T06:40:59.707Z,11.10
2023-05-07T06:43:33.670Z,11.06
2023-05-07T06:46:07.783Z,10.97
2023-05-07T06:48:35.113Z,10.89
2023-05-07T06:50:52.315Z,10.84
2023-05-07T06:53:19.890Z,10.81
2023-05-07T06:55:49.117Z,10.80
2023-05-07T06:58:18.173Z,10.78
2023-05-07T07:00:53.617Z,10.78
2023-05-07T07:03:28.252Z,10.83
2023-05-07T07:05:58.373Z,10.86
2023-05-07T07:08:31.848Z,10.85
2023-05-07T07:11:06.953Z,10.84
2023-05-07T07:13:33.488Z,10.82
2023-05-07T07:16:08.686Z,10.79
2023-05-07T07:18:45.849Z,10.76
2023-05-07T07:21:22.283Z,10.70
2023-05-07T07:23:56.467Z,10.65
2023-05-07T07:26:30.344Z,10.62
2023-05-07T07:29:04.637Z,10.62
2023-05-07T07:31:39.383Z,10.59
2023-05-07T07:34:02.648Z,10.56
2023-05-07T07:36:45.543Z,10.53
2023-05-07T07:39:20.558Z,10.50
2023-05-07T07:41:56.128Z,10.45
2023-05-07T07:44:30.758Z,10.41
2023-05-07T07:47:05.570Z,10.37
2023-05-07T07:49:39.013Z,10.36
2023-05-07T07:52:14.853Z,10.34
2023-05-07T07:54:48.776Z,10.32
2023-05-07T07:57:22.848Z,10.31
2023-05-07T07:59:58.571Z,10.35
2023-05-07T08:02:22.671Z,10.36
2023-05-07T08:04:56.868Z,10.36
2023-05-07T08:07:24.965Z,10.37
2023-05-07T08:09:58.926Z,10.36
2023-05-07T08:12:33.369Z,10.36
2023-05-07T08:15:08.002Z,10.36
2023-05-07T08:17:44.590Z,10.35
2023-05-07T08:20:19.349Z,10.36
2023-05-07T08:22:44.391Z,10.36
2023-05-07T08:25:18.504Z,10.35
2023-05-07T08:27:54.215Z,10.35
2023-05-07T08:30:28.612Z,10.35
2023-05-07T08:32:54.039Z,10.33
2023-05-07T08:35:17.230Z,10.31
2023-05-07T08:37:46.115Z,10.32
2023-05-07T08:40:21.119Z,10.34
2023-05-07T08:42:56.768Z,10.35
2023-05-07T08:45:33.975Z,10.34
2023-05-07T08:47:56.804Z,10.34
2023-05-07T08:50:28.074Z,10.34
2023-05-07T08:53:02.207Z,10.32
2023-05-07T08:55:28.007Z,10.32
2023-05-07T09:00:51.703Z,10.29
2023-05-07T09:03:25.477Z,10.29
2023-05-07T09:05:49.660Z,10.29
2023-05-07T09:08:19.911Z,10.29
2023-05-07T09:10:48.935Z,10.32
2023-05-07T09:13:18.302Z,10.35
2023-05-07T09:15:54.054Z,10.36
2023-05-07T09:18:28.347Z,10.38
2023-05-07T09:21:02.396Z,10.38
2023-05-07T09:23:36.201Z,10.38
2023-05-07T09:26:14.123Z,10.38
2023-05-07T09:28:42.969Z,10.39
2023-05-07T09:31:20.454Z,10.38
2023-05-07T09:33:58.076Z,10.37
2023-05-07T09:36:31.761Z,10.37
2023-05-07T09:38:55.797Z,10.36
2023-05-07T09:41:29.435Z,10.36
2023-05-07T09:44:04.391Z,10.35
2023-05-07T09:46:41.939Z,10.35
2023-05-07T09:49:24.863Z,10.34
2023-05-07T09:52:01.750Z,10.33
2023-05-07T09:54:28.202Z,10.34
2023-05-07T09:57:06.303Z,10.34
2023-05-07T09:59:42.629Z,10.31
2023-05-07T10:02:19.172Z,10.28
2023-05-07T10:04:48.449Z,10.26
2023-05-07T10:07:25.137Z,10.25
2023-05-07T10:10:01.984Z,10.25
2023-05-07T10:12:41.456Z,10.24
2023-05-07T10:15:17.497Z,10.25
2023-05-07T10:17:53.001Z,10.24
2023-05-07T10:20:18.067Z,10.23
2023-05-07T10:22:56.974Z,10.20
2023-05-07T10:25:28.104Z,10.17
2023-05-07T10:28:00.680Z,10.16
2023-05-07T10:30:46.051Z,10.16
2023-05-07T10:33:24.152Z,10.16
2023-05-07T10:36:00.526Z,10.17
2023-05-07T10:38:35.473Z,10.17
2023-05-07T10:41:03.432Z,10.15
2023-05-07T10:43:49.531Z,10.15
2023-05-07T10:46:24.847Z,10.15
2023-05-07T10:49:19.468Z,10.15
2023-05-07T10:52:18.569Z,10.16
2023-05-07T10:55:29.677Z,10.16
2023-05-07T10:57:57.684Z,10.14
2023-05-07T11:00:53.861Z,10.11
2023-05-07T11:03:28.571Z,10.07
2023-05-07T11:06:21.311Z,10.06
2023-05-07T11:09:04.404Z,10.04
2023-05-07T11:11:48.460Z,10.03
2023-05-07T11:14:53.901Z,10.03
2023-05-07T11:17:37.020Z,10.03
2023-05-07T11:20:00.385Z,10.02
2023-05-07T11:22:47.841Z,9.99
2023-05-07T11:25:34.887Z,9.94
2023-05-07T11:28:15.487Z,9.91
2023-05-07T11:30:49.456Z,9.85
2023-05-07T11:33:24.064Z,9.82
2023-05-07T11:35:58.815Z,9.79
2023-05-07T11:38:34.136Z,9.77
2023-05-07T11:41:08.259Z,9.74
2023-05-07T11:43:57.940Z,9.68
2023-05-07T11:46:32.741Z,9.63
2023-05-07T11:49:00.616Z,9.60
2023-05-07T11:51:57.169Z,9.58
2023-05-07T11:54:38.972Z,9.55
2023-05-07T11:57:18.778Z,9.52
2023-05-07T11:59:51.358Z,9.48
2023-05-07T12:02:25.116Z,9.46
2023-05-07T12:04:53.129Z,9.45
2023-05-07T12:07:22.732Z,9.45
2023-05-07T12:09:58.200Z,9.44
2023-05-07T12:12:22.682Z,9.43
2023-05-07T12:14:56.630Z,9.42
2023-05-07T12:17:30.811Z,9.38
2023-05-07T12:20:06.923Z,9.36
2023-05-07T12:22:41.244Z,9.34
2023-05-07T12:25:22.881Z,9.30
2023-05-07T12:28:01.297Z,9.23
2023-05-07T12:30:36.251Z,9.16
2023-05-07T12:32:56.856Z,9.09
2023-05-07T12:35:36.596Z,9.02
2023-05-07T12:38:14.826Z,8.99
2023-05-07T12:40:49.645Z,8.95
2023-05-07T12:43:19.896Z,8.94
2023-05-07T12:45:56.563Z,8.91
2023-05-07T12:48:33.198Z,8.90
2023-05-07T12:51:09.515Z,8.91
2023-05-07T12:53:47.386Z,8.92
2023-05-07T12:56:23.365Z,8.91
2023-05-07T12:59:02.142Z,8.89
2023-05-07T13:01:27.194Z,8.87
2023-05-07T13:03:57.201Z,8.88
2023-05-07T13:06:31.905Z,8.88
2023-05-07T13:09:03.128Z,8.87
2023-05-07T13:11:28.874Z,8.86
2023-05-07T13:14:02.742Z,8.82
2023-05-07T13:16:26.855Z,8.80
2023-05-07T13:19:00.445Z,8.76
2023-05-07T13:21:35.018Z,8.72
2023-05-07T13:24:10.672Z,8.69
2023-05-07T13:26:37.522Z,8.66
2023-05-07T13:29:11.992Z,8.64
2023-05-07T13:31:48.498Z,8.65
2023-05-07T13:34:23.622Z,8.68
2023-05-07T13:36:57.282Z,8.70
2023-05-07T13:39:32.627Z,8.74
2023-05-07T13:42:07.871Z,8.75
2023-05-07T13:44:33.401Z,8.77
2023-05-07T13:47:08.769Z,8.81
2023-05-07T13:49:36.780Z,8.83
2023-05-07T13:52:10.992Z,8.86
2023-05-07T13:54:45.296Z,8.88
2023-05-07T13:57:19.911Z,8.88
2023-05-07T13:59:54.498Z,8.89
2023-05-07T14:02:28.775Z,8.92
2023-05-07T14:05:04.007Z,8.93
2023-05-07T14:07:31.147Z,8.98
2023-05-07T14:10:06.518Z,9.03
2023-05-07T14:12:33.085Z,9.08
2023-05-07T14:15:04.229Z,9.13
2023-05-07T14:17:38.872Z,9.20
2023-05-07T14:20:14.327Z,9.28
2023-05-07T14:22:50.976Z,9.34
2023-05-07T14:25:24.903Z,9.40
2023-05-07T14:28:00.591Z,9.46
2023-05-07T14:30:24.908Z,9.52
2023-05-07T14:32:59.392Z,9.59
2023-05-07T14:35:33.917Z,9.63
2023-05-07T14:37:57.519Z,9.68
2023-05-07T14:40:35.728Z,9.75
2023-05-07T14:43:12.903Z,9.82
2023-05-07T14:45:48.009Z,9.86
2023-05-07T14:48:20.979Z,9.89
2023-05-07T14:50:57.204Z,9.94
2023-05-07T14:53:33.465Z,9.99
2023-05-07T14:56:10.694Z,10.04
2023-05-07T14:58:46.738Z,10.11
2023-05-07T15:01:26.117Z,10.16
2023-05-07T15:03:49.728Z,10.21
2023-05-07T15:06:26.516Z,10.27
2023-05-07T15:09:02.967Z,10.34
2023-05-07T15:11:37.083Z,10.40
2023-05-07T15:14:12.397Z,10.48
2023-05-07T15:16:47.670Z,10.54
2023-05-07T15:19:22.518Z,10.61
2023-05-07T15:21:47.437Z,10.68
2023-05-07T15:24:21.472Z,10.77
2023-05-07T15:26:58.816Z,10.85
2023-05-07T15:29:34.315Z,10.93
2023-05-07T15:32:03.046Z,10.99
2023-05-07T15:34:38.626Z,11.06
2023-05-07T15:37:14.283Z,11.12
2023-05-07T15:39:42.877Z,11.20
2023-05-07T15:42:12.574Z,11.28
2023-05-07T15:44:37.014Z,11.36
2023-05-07T15:47:11.859Z,11.45
2023-05-07T15:49:46.403Z,11.56
2023-05-07T15:52:21.032Z,11.68
2023-05-07T15:54:49.284Z,11.80
2023-05-07T15:57:13.854Z,11.91
2023-05-07T15:59:49.998Z,12.03
2023-05-07T16:02:24.163Z,12.15
2023-05-07T16:04:47.938Z,12.25
2023-05-07T16:07:17.919Z,12.31
2023-05-07T16:09:52.672Z,12.36
2023-05-07T16:12:27.524Z,12.43
2023-05-07T16:14:57.448Z,12.45
2023-05-07T16:17:31.877Z,12.50
2023-05-07T16:20:07.869Z,12.59
2023-05-07T16:22:35.755Z,12.69
2023-05-07T16:25:13.311Z,12.75
2023-05-07T16:27:43.225Z,12.81
2023-05-07T16:30:20.930Z,12.84
2023-05-07T16:32:49.782Z,12.82
2023-05-07T16:35:25.929Z,12.79
2023-05-07T16:38:01.690Z,12.80
2023-05-07T16:40:36.854Z,12.76
2023-05-07T16:43:12.746Z,12.72
2023-05-07T16:45:47.895Z,12.69
2023-05-07T16:48:15.875Z,12.68
2023-05-07T16:53:27.937Z,12.73
2023-05-07T16:55:58.279Z,12.80
2023-05-07T16:58:32.898Z,12.86
2023-05-07T17:01:09.056Z,12.89
2023-05-07T17:03:43.947Z,12.91
2023-05-07T17:06:15.414Z,12.97
2023-05-07T17:08:52.858Z,13.01
2023-05-07T17:11:32.400Z,13.06
2023-05-07T17:14:04.838Z,13.06
2023-05-07T17:16:41.284Z,13.17
2023-05-07T17:19:16.397Z,13.26
2023-05-07T17:21:51.227Z,13.30
2023-05-07T17:24:25.934Z,13.32
2023-05-07T17:27:01.196Z,13.32
2023-05-07T17:29:36.388Z,13.28
2023-05-07T17:31:59.957Z,13.26
2023-05-07T17:34:35.112Z,13.30
2023-05-07T17:37:11.683Z,13.35
2023-05-07T17:39:34.282Z,13.40
2023-05-07T17:42:10.615Z,13.48
2023-05-07T17:44:38.923Z,13.60
2023-05-07T17:47:15.394Z,13.66
2023-05-07T17:49:50.786Z,13.63
2023-05-07T17:52:26.697Z,13.63
2023-05-07T17:54:53.785Z,13.61
2023-05-07T17:57:30.354Z,13.62
2023-05-07T18:00:07.540Z,13.58
2023-05-07T18:02:22.671Z,13.53
2023-05-07T18:04:57.929Z,13.50
2023-05-07T18:07:26.570Z,13.48
2023-05-07T18:10:00.411Z,13.54
2023-05-07T18:12:34.731Z,13.62
2023-05-07T18:15:10.202Z,13.64
2023-05-07T18:17:46.893Z,13.71
2023-05-07T18:20:22.222Z,13.73
2023-05-07T18:22:57.982Z,13.77
2023-05-07T18:25:32.893Z,13.88
2023-05-07T18:27:55.921Z,14.00
2023-05-07T18:30:32.791Z,14.07
2023-05-07T18:33:07.532Z,14.05
2023-05-07T18:35:43.675Z,13.97
2023-05-07T18:38:20.246Z,13.93
2023-05-07T18:40:46.673Z,13.91
2023-05-07T18:43:23.341Z,13.85
2023-05-07T18:45:58.085Z,13.89
2023-05-07T18:48:33.070Z,14.05
2023-05-07T18:51:09.873Z,14.04
2023-05-07T18:53:45.066Z,14.02
2023-05-07T18:56:19.980Z,13.98
2023-05-07T18:58:54.344Z,13.97
2023-05-07T19:01:29.962Z,14.08
2023-05-07T19:04:05.296Z,14.12
2023-05-07T19:06:41.291Z,14.20
2023-05-07T19:09:11.039Z,14.21
2023-05-07T19:11:46.335Z,14.31
2023-05-07T19:14:20.560Z,14.48
2023-05-07T19:16:55.624Z,14.64
2023-05-07T19:19:30.876Z,14.90
2023-05-07T19:22:05.824Z,15.08
2023-05-07T19:24:42.825Z,15.26
2023-05-07T19:27:18.265Z,15.43
2023-05-07T19:29:53.108Z,15.51
2023-05-07T19:32:28.196Z,15.52
2023-05-07T19:35:03.384Z,15.54
2023-05-07T19:37:40.012Z,15.68
2023-05-07T19:40:21.807Z,15.78
2023-05-07T19:42:46.964Z,15.79
2023-05-07T19:45:22.433Z,15.78
2023-05-07T19:47:59.240Z,15.86
2023-05-07T19:50:36.788Z,15.90
2023-05-07T19:53:11.431Z,15.93
2023-05-07T19:55:45.944Z,16.06
2023-05-07T19:58:21.393Z,15.97
2023-05-07T20:00:55.870Z,15.88
2023-05-07T20:03:30.653Z,15.72
2023-05-07T20:06:05.803Z,15.59
2023-05-07T20:08:42.640Z,15.42
2023-05-07T20:11:11.264Z,15.24
2023-05-07T20:13:47.301Z,15.26
2023-05-07T20:16:10.910Z,15.32
2023-05-07T20:18:46.658Z,15.29
2023-05-07T20:21:22.998Z,15.27
2023-05-07T20:23:58.687Z,15.13
2023-05-07T20:26:35.565Z,15.07
2023-05-07T20:29:14.576Z,15.17
2023-05-07T20:31:49.760Z,15.13
2023-05-07T20:34:24.917Z,15.20
2023-05-07T20:37:00.621Z,15.31
2023-05-07T20:39:35.248Z,15.27
2023-05-07T20:42:11.707Z,15.15
2023-05-07T20:44:46.017Z,15.07
2023-05-07T20:47:23.098Z,15.14
2023-05-07T20:50:00.172Z,15.27
2023-05-07T20:52:34.968Z,15.44
2023-05-07T20:55:11.571Z,15.65
2023-05-07T21:00:24.691Z,15.76
2023-05-07T21:03:01.232Z,15.78
2023-05-07T21:05:36.997Z,15.75
2023-05-07T21:08:11.880Z,15.73
2023-05-07T21:10:49.684Z,15.78
2023-05-07T21:13:26.492Z,15.65
2023-05-07T21:16:03.181Z,15.42
2023-05-07T21:18:41.873Z,15.29
2023-05-07T21:21:18.733Z,15.27
2023-05-07T21:23:44.102Z,15.28
2023-05-07T21:26:25.542Z,15.35
2023-05-07T21:28:59.539Z,15.44
2023-05-07T21:31:36.310Z,15.54
2023-05-07T21:34:13.034Z,15.55
2023-05-07T21:36:47.631Z,15.52
2023-05-07T21:39:26.227Z,15.51
2023-05-07T21:42:03.347Z,15.52
2023-05-07T21:44:39.902Z,15.60
2023-05-07T21:47:16.100Z,15.79
2023-05-07T21:49:50.981Z,15.82
2023-05-07T21:52:27.293Z,15.84
2023-05-07T21:55:05.221Z,15.87
2023-05-07T21:57:45.661Z,15.90
2023-05-07T22:00:27.682Z,15.78
2023-05-07T22:03:02.296Z,15.70
2023-05-07T22:05:38.777Z,15.79
2023-05-07T22:08:14.827Z,15.87
2023-05-07T22:10:50.421Z,15.84
2023-05-07T22:13:26.067Z,15.72
2023-05-07T22:16:01.725Z,15.62
2023-05-07T22:18:39.091Z,15.43
2023-05-07T22:21:14.700Z,15.39
2023-05-07T22:23:50.478Z,15.49
2023-05-07T22:26:25.568Z,15.32
2023-05-07T22:29:00.730Z,15.27
2023-05-07T22:31:35.402Z,15.28
2023-05-07T22:34:10.256Z,15.33
2023-05-07T22:36:46.148Z,15.43
2023-05-07T22:39:26.081Z,15.46
2023-05-07T22:42:01.042Z,15.55
2023-05-07T22:44:37.240Z,15.62
2023-05-07T22:47:13.513Z,15.60
2023-05-07T22:49:50.299Z,15.56
2023-05-07T22:52:27.035Z,15.56
2023-05-07T22:55:02.399Z,15.62
2023-05-07T22:57:37.638Z,15.58
2023-05-07T23:00:14.610Z,15.56
2023-05-07T23:02:49.023Z,15.51
2023-05-07T23:05:25.182Z,15.50
2023-05-07T23:10:53.582Z,15.56
2023-05-07T23:13:29.704Z,15.58
2023-05-07T23:15:54.064Z,15.59
2023-05-07T23:18:31.680Z,15.63
2023-05-07T23:21:09.215Z,15.74
2023-05-07T23:23:46.192Z,15.82
2023-05-07T23:26:21.915Z,15.84
2023-05-07T23:28:57.651Z,15.85
2023-05-07T23:31:33.393Z,15.84
2023-05-07T23:34:09.921Z,15.85
2023-05-07T23:37:04.664Z,15.97
2023-05-07T23:39:39.789Z,16.08
2023-05-07T23:42:15.958Z,16.12
2023-05-07T23:44:51.194Z,16.07
2023-05-07T23:47:26.386Z,16.14
2023-05-07T23:50:01.633Z,16.21
2023-05-07T23:52:38.758Z,16.28
2023-05-07T23:55:18.210Z,16.32
2023-05-07T23:57:52.358Z,16.29
